Berger, MO (63014)

01:12 AM CDT die 03o July, anno 2015 (GMT -0500)
St. George | | Change Station
CLOSE
Current Station
Personal Weather Stations
Location: Hermann, MO
Elevation: 572 ft
Nearby Weather Stations
Active Advisory: Flood Warning Active Notice: Local Storm Report

Elev 572 ft 38.70 °N, 91.44 °W | Updated 15 seconds ago

Aequaliter Nubila
Aequaliter Nubila
68.0 °F
Feels Like 68.0 °F
N
1.6
Ventus Variabilis Ventus from Zephyrus
Gusts 3.8 mph

Hodie
High -- | Low -- °F
--% Chance of Precip.
Yesterday
High -- | Low -- °F
Precip. -- in
5:45 AM 8:33 PM
Full, 98% visible
Pressio 29.92 in
Visibilitas 10.0 milia passuum
Clouds Aequaliter Nubila 3100 ft
Frigus in quo Ros apparet 63 °F
Umor 84%
Rainfall 0.00 in
Snow Depth Not available.
UV 0 out of 12
Pollen .60 out of 12
Air Quality Not available.
Flu Activity Not available.
METAR KFYG 030455Z AUTO 00000KT 10SM OVC031 20/17 A2992 RMK AO2

More Conditions Fewer Conditions

Pressio 29.92 in
Visibilitas 10.0 milia passuum
Clouds Aequaliter Nubila 3100 ft
Frigus in quo Ros apparet 63 °F
Umor 84%
Rainfall 0.00 in
Snow Depth Not available.
UV 0 out of 12
Pollen .60 out of 12
Air Quality Not available.
Flu Activity Not available.
METAR KFYG 030455Z AUTO 00000KT 10SM OVC031 20/17 A2992 RMK AO2

More Conditions Fewer Conditions

10-Day Weather Forecast

×

Almanac

Astronomy

Jul. 03, 2015 Rise Set
Actual Time
Civil Twilight
Nautical Twilight
Astronomical Twilight
Moon
Length Of Visible Light
Length of Day
Tomorrow will be .
, % of the Moon is Illuminated

Today's Extremes

State Highs State Lows

Community

WunderPhotos

Upload Photos

1,834,634 photos uploaded!

WunderBlogs® & News

Nearby

Air Quality

  Air Quality AQ Index Pollutant
Not available.

Snow Depth

Station Depth Elevation

Earthquake Activity

City Distance Mag. Time & Date
Minimum magnitude displayed is 2.5.

Coastal Water Temperatures

Locus Calor

Stations

Nearby Weather Stations

Station Location Temp Frigus Venti Frigus in quo Ros apparet Umor Ventus Precip. Elev Renovata Type
                   
Flood Warning
Statement as of 09:38 PM CDT die 02o July, anno 2015

The Flood Warning continues for
the Missouri River at Washington.
* At 8:45 PM Thursday the stage was 21.8 feet.
* Flood stage is 20.0 feet.
* Minor flooding is occurring.
* Forecast: the river will rise to near 24.7 feet by Saturday morning.
The river will fall below flood stage Monday afternoon.


                   Fld latest 7 a.M. Forecast
location stg obs stg 07/03 07/04 07/05 07/06 07/07

Missouri River
Washington 20.0 21.84 23.0 24.7 23.0 20.8 18.9




Lat... Lon 3866 9119 3861 9123 3851 9089 3859 9072
      3865 9078